Terminal Aerodrome Forecast
Issued by NWS Blacksburg, VA

Home | Current Version | Previous Version | Text Only | Print | Product List | Glossary On
Versions: 1 2 3 4 5 6 7 8 9 10 11 12 13 14 15 16 17 18 19 20 21 22 23 24 25
000
FTUS41 KRNK 171732
TAFDAN
TAF
KDAN 171732Z 1718/1818 05006KT P6SM SCT028 BKN050
      TEMPO 1718/1719 BKN028
     FM180100 06004KT P6SM SCT025 BKN080
     FM180700 00000KT 4SM BR SCT005 BKN030
     FM180900 00000KT 2SM BR SCT004 BKN020
      TEMPO 1810/1812 3/4SM BR BKN004
     FM181400 00000KT P6SM SCT015 BKN070=

USA.gov is the U.S. government's official web portal to all federal, state and local government web resources and services.